createdAt,value
2018-07-13T00:02:02.469Z,8.80
2018-07-13T00:04:31.570Z,8.80
2018-07-13T00:07:00.744Z,7.83
2018-07-13T00:09:29.684Z,9.25
2018-07-13T00:11:58.558Z,8.13
2018-07-13T00:14:27.788Z,7.97
2018-07-13T00:16:57.970Z,7.83
2018-07-13T00:19:27.546Z,8.07
2018-07-13T00:21:56.625Z,8.17
2018-07-13T00:24:25.633Z,8.10
2018-07-13T00:26:54.594Z,7.63
2018-07-13T00:29:23.833Z,7.50
2018-07-13T00:31:52.944Z,7.43
2018-07-13T00:34:22.075Z,7.87
2018-07-13T00:36:51.629Z,7.80
2018-07-13T00:39:20.682Z,8.27
2018-07-13T00:41:49.723Z,7.43
2018-07-13T00:44:19.567Z,7.57
2018-07-13T00:46:48.528Z,7.43
2018-07-13T00:49:17.611Z,6.90
2018-07-13T00:51:47.203Z,8.13
2018-07-13T00:54:16.213Z,7.53
2018-07-13T00:56:45.434Z,7.20
2018-07-13T00:59:14.634Z,8.20
2018-07-13T01:01:43.684Z,7.43
2018-07-13T01:04:12.856Z,7.17
2018-07-13T01:06:41.866Z,7.43
2018-07-13T01:09:10.947Z,7.80
2018-07-13T01:11:40.155Z,7.33
2018-07-13T01:14:10.389Z,6.87
2018-07-13T01:16:39.502Z,8.10
2018-07-13T01:19:08.575Z,7.50
2018-07-13T01:21:38.478Z,7.27
2018-07-13T01:24:07.670Z,7.50
2018-07-13T01:26:36.608Z,7.70
2018-07-13T01:29:05.763Z,7.33
2018-07-13T01:31:34.843Z,7.53
2018-07-13T01:34:03.987Z,7.70
2018-07-13T01:36:33.138Z,6.97
2018-07-13T01:39:02.075Z,6.90
2018-07-13T01:41:31.075Z,7.23
2018-07-13T01:44:00.452Z,7.43
2018-07-13T01:46:29.419Z,6.53
2018-07-13T01:48:58.523Z,6.87
2018-07-13T01:51:28.642Z,7.07
2018-07-13T01:53:57.783Z,7.00
2018-07-13T01:56:26.784Z,6.73
2018-07-13T01:58:55.907Z,8.27
2018-07-13T02:01:24.912Z,7.07
2018-07-13T02:03:53.992Z,7.27
2018-07-13T02:06:23.169Z,7.03
2018-07-13T02:08:52.302Z,7.70
2018-07-13T02:11:21.427Z,7.73
2018-07-13T02:13:50.754Z,7.40
2018-07-13T02:16:19.718Z,7.57
2018-07-13T02:18:48.785Z,7.90
2018-07-13T02:21:17.982Z,7.67
2018-07-13T02:23:47.085Z,7.60
2018-07-13T02:26:16.130Z,7.43
2018-07-13T02:28:45.788Z,8.00
2018-07-13T02:31:14.731Z,8.07
2018-07-13T02:33:43.799Z,7.93
2018-07-13T02:36:13.219Z,7.93
2018-07-13T02:38:42.489Z,8.80
2018-07-13T02:41:11.484Z,8.07
2018-07-13T02:43:40.552Z,8.93
2018-07-13T02:46:09.543Z,8.63
2018-07-13T02:48:38.646Z,8.10
2018-07-13T02:51:07.765Z,8.90
2018-07-13T02:53:36.747Z,7.93
2018-07-13T02:56:06.431Z,7.70
2018-07-13T02:58:35.562Z,8.07
2018-07-13T03:01:04.811Z,8.80
2018-07-13T03:03:33.798Z,7.90
2018-07-13T03:06:03.010Z,8.33
2018-07-13T03:08:31.933Z,8.93
2018-07-13T03:11:01.014Z,8.00
2018-07-13T03:13:30.266Z,7.97
2018-07-13T03:15:59.267Z,8.37
2018-07-13T03:18:28.352Z,8.17
2018-07-13T03:20:57.559Z,9.07
2018-07-13T03:23:26.552Z,8.40
2018-07-13T03:25:56.200Z,51.43
2018-07-13T03:28:25.584Z,12.97
2018-07-13T03:30:54.572Z,9.07
2018-07-13T03:33:23.811Z,10.63
2018-07-13T03:35:54.160Z,7.57
2018-07-13T03:38:23.166Z,7.83
2018-07-13T03:40:52.095Z,7.07
2018-07-13T03:43:21.167Z,8.23
2018-07-13T03:45:50.316Z,8.10
2018-07-13T03:48:19.372Z,7.85
2018-07-13T03:50:48.717Z,7.87
2018-07-13T03:53:17.574Z,7.33
2018-07-13T03:55:46.626Z,7.40
2018-07-13T03:58:15.884Z,7.22
2018-07-13T04:00:44.940Z,7.22
2018-07-13T04:03:13.918Z,7.05
2018-07-13T04:05:43.460Z,7.25
2018-07-13T04:08:12.424Z,7.90
2018-07-13T04:10:41.483Z,8.53
2018-07-13T04:13:10.587Z,8.00
2018-07-13T04:15:39.792Z,9.65
2018-07-13T04:18:13.287Z,9.85
2018-07-13T04:20:42.406Z,11.40
2018-07-13T04:23:11.611Z,9.28
2018-07-13T04:25:40.877Z,9.80
2018-07-13T04:28:10.015Z,8.48
2018-07-13T04:30:39.036Z,8.08
2018-07-13T04:33:08.154Z,8.30
2018-07-13T04:35:37.461Z,8.68
2018-07-13T04:38:12.658Z,8.48
2018-07-13T04:40:41.838Z,8.28
2018-07-13T04:43:14.427Z,7.90
2018-07-13T04:45:56.646Z,8.33
2018-07-13T04:48:26.321Z,8.93
2018-07-13T04:50:59.936Z,8.50
2018-07-13T04:53:30.768Z,9.28
2018-07-13T04:56:00.108Z,8.50
2018-07-13T04:58:29.222Z,9.33
2018-07-13T05:00:58.479Z,9.10
2018-07-13T05:03:27.702Z,9.70
2018-07-13T05:05:56.952Z,9.78
2018-07-13T05:08:26.268Z,9.08
2018-07-13T05:10:55.518Z,8.55
2018-07-13T05:13:24.461Z,7.65
2018-07-13T05:15:54.391Z,7.67
2018-07-13T05:18:23.599Z,8.00
2018-07-13T05:20:52.625Z,7.35
2018-07-13T05:23:22.128Z,7.22
2018-07-13T05:25:51.451Z,7.53
2018-07-13T05:28:20.676Z,7.78
2018-07-13T05:30:51.851Z,7.17
2018-07-13T05:33:21.064Z,7.72
2018-07-13T05:35:50.506Z,7.65
2018-07-13T05:38:19.856Z,8.03
2018-07-13T05:40:49.080Z,8.43
2018-07-13T05:43:18.391Z,8.20
2018-07-13T05:45:47.812Z,8.30
2018-07-13T05:48:16.996Z,8.65
2018-07-13T05:50:46.374Z,8.78
2018-07-13T05:53:15.621Z,9.18
2018-07-13T05:55:44.739Z,8.78
2018-07-13T05:58:13.914Z,9.25
2018-07-13T06:00:43.403Z,8.43
2018-07-13T06:03:12.572Z,8.98
2018-07-13T06:05:41.786Z,8.58
2018-07-13T06:08:11.227Z,9.20
2018-07-13T06:10:40.348Z,8.70
2018-07-13T06:13:09.603Z,8.90
2018-07-13T06:15:38.751Z,8.05
2018-07-13T06:18:08.157Z,8.60
2018-07-13T06:20:37.203Z,8.33
2018-07-13T06:23:06.532Z,7.92
2018-07-13T06:25:35.333Z,7.08
2018-07-13T06:28:04.402Z,7.37
2018-07-13T06:30:33.768Z,7.72
2018-07-13T06:33:02.767Z,7.80
2018-07-13T06:35:31.662Z,7.20
2018-07-13T06:38:00.645Z,7.65
2018-07-13T06:40:29.654Z,7.15
2018-07-13T06:42:58.539Z,7.28
2018-07-13T06:45:27.725Z,7.33
2018-07-13T06:47:56.823Z,7.30
2018-07-13T06:50:28.140Z,8.85
2018-07-13T06:52:57.253Z,7.75
2018-07-13T06:55:26.131Z,8.33
2018-07-13T06:58:06.190Z,8.25
2018-07-13T07:01:06.594Z,7.85
2018-07-13T07:03:42.385Z,8.28
2018-07-13T07:06:14.919Z,8.43
2018-07-13T07:08:49.636Z,7.95
2018-07-13T07:11:19.185Z,7.47
2018-07-13T07:13:48.375Z,7.67
2018-07-13T07:16:17.561Z,8.13
2018-07-13T07:18:46.458Z,7.50
2018-07-13T07:21:15.421Z,7.47
2018-07-13T07:23:44.390Z,7.80
2018-07-13T07:26:13.364Z,7.92
2018-07-13T07:28:43.011Z,7.55
2018-07-13T07:31:12.001Z,7.85
2018-07-13T07:33:41.067Z,7.50
2018-07-13T07:36:10.292Z,7.47
2018-07-13T07:38:39.364Z,8.18
2018-07-13T07:41:08.370Z,7.30
2018-07-13T07:43:37.863Z,7.78
2018-07-13T07:46:06.911Z,7.35
2018-07-13T07:48:35.802Z,6.97
2018-07-13T07:51:04.873Z,6.85
2018-07-13T07:53:33.923Z,6.58
2018-07-13T07:56:02.839Z,6.28
2018-07-13T07:58:31.961Z,6.83
2018-07-13T08:01:00.881Z,5.67
2018-07-13T08:03:30.813Z,6.30
2018-07-13T08:05:59.985Z,5.75
2018-07-13T08:08:28.898Z,6.65
2018-07-13T08:10:57.800Z,6.58
2018-07-13T08:13:26.846Z,6.35
2018-07-13T08:15:55.771Z,6.15
2018-07-13T08:18:24.613Z,6.05
2018-07-13T08:20:53.892Z,6.25
2018-07-13T08:23:23.008Z,6.45
2018-07-13T08:25:52.565Z,7.12
2018-07-13T08:28:22.244Z,6.22
2018-07-13T08:30:55.612Z,6.08
2018-07-13T08:33:24.637Z,5.83
2018-07-13T08:35:53.564Z,6.17
2018-07-13T08:38:22.591Z,5.78
2018-07-13T08:40:51.896Z,5.80
2018-07-13T08:43:20.924Z,6.15
2018-07-13T08:45:49.935Z,6.65
2018-07-13T08:48:19.397Z,6.10
2018-07-13T08:50:48.554Z,6.17
2018-07-13T08:53:17.712Z,6.12
2018-07-13T08:55:46.950Z,7.08
2018-07-13T08:58:16.990Z,6.60
2018-07-13T09:00:46.148Z,6.40
2018-07-13T09:03:15.237Z,6.87
2018-07-13T09:05:44.252Z,6.08
2018-07-13T09:08:13.324Z,5.62
2018-07-13T09:10:42.940Z,6.22
2018-07-13T09:13:12.132Z,6.15
2018-07-13T09:15:41.062Z,6.87
2018-07-13T09:18:10.197Z,6.40
2018-07-13T09:20:39.251Z,6.20
2018-07-13T09:23:08.252Z,5.95
2018-07-13T09:25:37.276Z,6.08
2018-07-13T09:28:06.370Z,7.10
2018-07-13T09:30:35.283Z,6.28
2018-07-13T09:33:04.760Z,5.80
2018-07-13T09:35:33.780Z,6.60
2018-07-13T09:38:02.820Z,6.83
2018-07-13T09:40:31.956Z,6.55
2018-07-13T09:43:00.884Z,6.22
2018-07-13T09:45:29.959Z,5.87
2018-07-13T09:47:58.938Z,6.30
2018-07-13T09:50:27.948Z,5.90
2018-07-13T09:52:57.005Z,5.35
2018-07-13T09:55:26.319Z,5.85
2018-07-13T09:57:55.427Z,6.45
2018-07-13T10:00:28.798Z,6.50
2018-07-13T10:02:57.850Z,6.03
2018-07-13T10:05:26.910Z,5.72
2018-07-13T10:07:57.077Z,5.92
2018-07-13T10:10:26.005Z,4.95
2018-07-13T10:12:55.176Z,5.17
2018-07-13T10:15:24.248Z,5.28
2018-07-13T10:17:53.261Z,5.12
2018-07-13T10:20:22.329Z,5.35
2018-07-13T10:22:51.676Z,4.60
2018-07-13T10:25:20.797Z,5.35
2018-07-13T10:27:49.912Z,5.60
2018-07-13T10:30:19.158Z,6.20
2018-07-13T10:32:48.293Z,6.12
2018-07-13T10:35:17.391Z,5.95
2018-07-13T10:37:46.456Z,5.95
2018-07-13T10:40:15.457Z,5.97
2018-07-13T10:42:44.275Z,6.67
2018-07-13T10:45:13.253Z,6.03
2018-07-13T10:47:42.318Z,6.12
2018-07-13T10:50:11.141Z,6.10
2018-07-13T10:52:40.316Z,6.00
2018-07-13T10:55:09.284Z,7.58
2018-07-13T10:57:38.271Z,6.42
2018-07-13T11:00:08.405Z,5.97
2018-07-13T11:02:37.345Z,5.72
2018-07-13T11:05:06.322Z,6.05
2018-07-13T11:07:35.527Z,5.50
2018-07-13T11:10:04.452Z,6.03
2018-07-13T11:12:33.495Z,5.67
2018-07-13T11:15:02.523Z,6.08
2018-07-13T11:17:31.339Z,5.53
2018-07-13T11:20:00.282Z,6.65
2018-07-13T11:22:29.212Z,6.22
2018-07-13T11:24:58.135Z,5.15
2018-07-13T11:27:27.031Z,6.12
2018-07-13T11:29:56.424Z,5.42
2018-07-13T11:32:27.206Z,5.45
2018-07-13T11:34:56.284Z,4.67
2018-07-13T11:37:25.678Z,4.62
2018-07-13T11:39:54.497Z,4.87
2018-07-13T11:42:24.794Z,5.17
2018-07-13T11:44:53.883Z,5.60
2018-07-13T11:47:23.686Z,5.70
2018-07-13T11:49:53.114Z,6.05
2018-07-13T11:52:21.987Z,6.15
2018-07-13T11:54:51.114Z,5.80
2018-07-13T11:57:20.240Z,5.28
2018-07-13T11:59:49.239Z,5.00
2018-07-13T12:02:18.527Z,5.53
2018-07-13T12:04:47.620Z,4.97
2018-07-13T12:07:16.450Z,5.87
2018-07-13T12:09:45.417Z,5.25
2018-07-13T12:12:14.649Z,5.37
2018-07-13T12:14:43.588Z,5.47
2018-07-13T12:17:12.620Z,5.47
2018-07-13T12:19:42.005Z,5.40
2018-07-13T12:22:10.992Z,5.42
2018-07-13T12:24:40.079Z,5.35
2018-07-13T12:27:08.994Z,5.12
2018-07-13T12:29:37.836Z,5.15
2018-07-13T12:32:06.731Z,5.35
2018-07-13T12:34:35.619Z,5.50
2018-07-13T12:37:04.552Z,4.87
2018-07-13T12:39:33.496Z,5.42
2018-07-13T12:42:02.498Z,5.35
2018-07-13T12:44:31.439Z,5.20
2018-07-13T12:47:00.351Z,7.55
2018-07-13T12:49:29.733Z,7.58
2018-07-13T12:51:58.727Z,7.25
2018-07-13T12:54:27.832Z,7.30
2018-07-13T12:56:56.807Z,8.08
2018-07-13T12:59:25.945Z,8.43
2018-07-13T13:01:54.994Z,7.87
2018-07-13T13:04:24.028Z,7.72
2018-07-13T13:06:53.041Z,8.85
2018-07-13T13:09:21.940Z,8.93
2018-07-13T13:11:51.053Z,9.55
2018-07-13T13:14:19.943Z,11.03
2018-07-13T13:16:48.892Z,9.53
2018-07-13T13:19:17.808Z,8.00
2018-07-13T13:21:46.914Z,7.78
2018-07-13T13:24:16.193Z,7.22
2018-07-13T13:26:45.314Z,6.92
2018-07-13T13:29:14.300Z,7.53
2018-07-13T13:31:43.110Z,7.78
2018-07-13T13:34:12.570Z,10.23
2018-07-13T13:36:41.593Z,7.85
2018-07-13T13:39:10.425Z,6.37
2018-07-13T13:41:39.546Z,8.03
2018-07-13T13:44:08.466Z,7.75
2018-07-13T13:46:37.333Z,9.63
2018-07-13T13:49:06.296Z,8.97
2018-07-13T13:51:35.208Z,9.83
2018-07-13T13:54:04.145Z,9.67
2018-07-13T13:56:33.791Z,9.73
2018-07-13T13:59:02.657Z,8.87
2018-07-13T14:01:31.769Z,9.10
2018-07-13T14:04:00.743Z,10.17
2018-07-13T14:06:29.630Z,9.97
2018-07-13T14:08:58.723Z,12.55
2018-07-13T14:11:27.616Z,11.90
2018-07-13T14:13:56.737Z,10.28
2018-07-13T14:16:25.676Z,11.50
2018-07-13T14:18:55.031Z,10.98
2018-07-13T14:21:24.032Z,11.18
2018-07-13T14:23:52.948Z,12.60
2018-07-13T14:26:21.896Z,11.40
2018-07-13T14:28:50.792Z,12.20
2018-07-13T14:31:19.786Z,11.63
2018-07-13T14:33:48.951Z,10.85
2018-07-13T14:36:17.842Z,9.20
2018-07-13T14:38:46.776Z,9.85
2018-07-13T14:41:16.004Z,10.05
2018-07-13T14:43:44.957Z,10.23
2018-07-13T14:46:13.963Z,11.15
2018-07-13T14:48:43.217Z,11.33
2018-07-13T14:51:12.215Z,11.85
2018-07-13T14:53:41.207Z,12.00
2018-07-13T14:56:10.889Z,11.83
2018-07-13T14:58:39.809Z,11.50
2018-07-13T15:01:08.820Z,12.63
2018-07-13T15:03:38.513Z,11.53
2018-07-13T15:06:07.504Z,12.55
2018-07-13T15:08:36.391Z,12.00
2018-07-13T15:11:05.428Z,11.12
2018-07-13T15:13:34.387Z,10.48
2018-07-13T15:16:03.319Z,10.30
2018-07-13T15:18:32.320Z,9.38
2018-07-13T15:21:01.358Z,10.58
2018-07-13T15:23:30.237Z,10.65
2018-07-13T15:25:59.520Z,10.93
2018-07-13T15:28:28.641Z,10.60
2018-07-13T15:30:57.727Z,10.18
2018-07-13T15:33:26.906Z,9.85
2018-07-13T15:35:56.020Z,9.90
2018-07-13T15:38:25.084Z,9.98
2018-07-13T15:40:54.275Z,10.68
2018-07-13T15:43:24.793Z,10.20
2018-07-13T15:45:53.826Z,10.15
2018-07-13T15:48:23.245Z,9.30
2018-07-13T15:50:52.366Z,9.98
2018-07-13T15:53:21.379Z,10.23
2018-07-13T15:56:01.212Z,9.88
2018-07-13T15:58:30.348Z,9.40
2018-07-13T16:00:59.579Z,9.53
2018-07-13T16:03:34.629Z,9.45
2018-07-13T16:06:07.317Z,9.70
2018-07-13T16:08:38.958Z,8.98
2018-07-13T16:11:08.620Z,8.63
2018-07-13T16:13:37.894Z,8.98
2018-07-13T16:16:08.057Z,8.00
2018-07-13T16:18:40.246Z,7.15
2018-07-13T16:21:09.287Z,7.75
2018-07-13T16:23:38.577Z,8.60
2018-07-13T16:26:08.819Z,7.90
2018-07-13T16:28:37.906Z,8.95
2018-07-13T16:31:07.153Z,7.53
2018-07-13T16:33:36.530Z,7.40
2018-07-13T16:36:05.797Z,7.35
2018-07-13T16:38:34.832Z,19.07
2018-07-13T16:41:03.926Z,8.10
2018-07-13T16:43:39.711Z,8.83
2018-07-13T16:46:11.766Z,9.10
2018-07-13T16:48:40.872Z,9.40
2018-07-13T16:51:11.513Z,9.85
2018-07-13T16:53:42.300Z,8.18
2018-07-13T16:56:12.997Z,8.73
2018-07-13T16:58:42.218Z,8.53
2018-07-13T17:01:13.499Z,7.15
2018-07-13T17:03:44.647Z,7.37
2018-07-13T17:06:14.247Z,7.87
2018-07-13T17:08:43.607Z,7.78
2018-07-13T17:11:12.836Z,8.75
2018-07-13T17:13:41.862Z,7.75
2018-07-13T17:16:11.042Z,7.90
2018-07-13T17:18:40.037Z,8.00
2018-07-13T17:21:10.365Z,9.78
2018-07-13T17:23:39.540Z,12.78
2018-07-13T17:26:08.771Z,9.93
2018-07-13T17:28:39.021Z,9.10
2018-07-13T17:31:08.081Z,9.13
2018-07-13T17:33:38.278Z,7.12
2018-07-13T17:36:08.579Z,8.38
2018-07-13T17:38:38.455Z,8.45
2018-07-13T17:41:08.491Z,7.67
2018-07-13T17:43:38.673Z,8.10
2018-07-13T17:46:13.537Z,8.35
2018-07-13T17:48:43.019Z,7.85
2018-07-13T17:51:15.395Z,8.88
2018-07-13T17:53:44.521Z,8.58
2018-07-13T17:56:13.657Z,8.50
2018-07-13T17:58:42.899Z,8.00
2018-07-13T18:01:11.944Z,7.50
2018-07-13T18:03:41.074Z,7.85
2018-07-13T18:06:10.159Z,7.95
2018-07-13T18:08:39.254Z,12.23
2018-07-13T18:11:08.247Z,13.40
2018-07-13T18:13:38.804Z,9.63
2018-07-13T18:16:07.840Z,9.93
2018-07-13T18:18:36.800Z,9.38
2018-07-13T18:21:05.749Z,10.68
2018-07-13T18:23:34.830Z,10.93
2018-07-13T18:26:03.997Z,9.75
2018-07-13T18:28:33.201Z,9.98
2018-07-13T18:31:02.241Z,8.40
2018-07-13T18:33:31.382Z,9.90
2018-07-13T18:36:00.315Z,9.10
2018-07-13T18:38:29.942Z,8.95
2018-07-13T18:40:58.829Z,8.95
2018-07-13T18:43:27.810Z,9.08
2018-07-13T18:45:57.324Z,10.90
2018-07-13T18:48:26.244Z,10.20
2018-07-13T18:50:55.416Z,10.43
2018-07-13T18:53:24.451Z,10.55
2018-07-13T18:55:53.481Z,10.88
2018-07-13T18:58:22.503Z,11.22
2018-07-13T19:00:52.759Z,10.95
2018-07-13T19:03:21.820Z,11.63
2018-07-13T19:05:51.000Z,11.28
2018-07-13T19:08:20.059Z,10.98
2018-07-13T19:10:49.247Z,11.25
2018-07-13T19:13:18.222Z,10.58
2018-07-13T19:15:47.722Z,10.90
2018-07-13T19:18:16.951Z,11.15
2018-07-13T19:20:45.996Z,12.05
2018-07-13T19:23:15.121Z,11.48
2018-07-13T19:25:44.110Z,12.07
2018-07-13T19:28:13.113Z,11.43
2018-07-13T19:30:42.377Z,11.73
2018-07-13T19:33:11.372Z,11.83
2018-07-13T19:35:40.790Z,11.80
2018-07-13T19:38:09.786Z,12.03
2018-07-13T19:40:39.467Z,12.13
2018-07-13T19:43:08.932Z,11.95
2018-07-13T19:45:38.850Z,12.53
2018-07-13T19:48:07.992Z,12.30
2018-07-13T19:50:37.136Z,11.63
2018-07-13T19:53:06.247Z,13.03
2018-07-13T19:55:35.701Z,12.90
2018-07-13T19:58:04.751Z,12.10
2018-07-13T20:00:34.022Z,12.15
2018-07-13T20:03:03.194Z,12.37
2018-07-13T20:05:32.353Z,12.58
2018-07-13T20:08:01.466Z,12.35
2018-07-13T20:10:30.541Z,12.75
2018-07-13T20:12:59.684Z,12.95
2018-07-13T20:15:28.835Z,13.03
2018-07-13T20:17:57.863Z,12.88
2018-07-13T20:20:27.060Z,12.15
2018-07-13T20:22:56.330Z,12.75
2018-07-13T20:25:25.518Z,12.90
2018-07-13T20:27:54.812Z,13.30
2018-07-13T20:30:23.906Z,13.70
2018-07-13T20:32:53.014Z,14.20
2018-07-13T20:35:22.164Z,12.93
2018-07-13T20:37:51.453Z,14.38
2018-07-13T20:40:20.568Z,13.28
2018-07-13T20:42:49.874Z,13.58
2018-07-13T20:45:18.926Z,13.70
2018-07-13T20:47:48.075Z,13.30
2018-07-13T20:50:17.242Z,13.78
2018-07-13T20:52:46.249Z,13.43
2018-07-13T20:55:15.847Z,13.08
2018-07-13T20:57:45.566Z,15.28
2018-07-13T21:00:15.480Z,12.18
2018-07-13T21:02:44.505Z,13.08
2018-07-13T21:05:14.277Z,13.55
2018-07-13T21:07:43.454Z,13.83
2018-07-13T21:10:12.612Z,12.98
2018-07-13T21:12:41.879Z,13.40
2018-07-13T21:15:10.878Z,13.75
2018-07-13T21:17:39.872Z,13.53
2018-07-13T21:20:09.289Z,14.78
2018-07-13T21:22:39.655Z,14.55
2018-07-13T21:25:09.223Z,14.85
2018-07-13T21:27:38.219Z,13.88
2018-07-13T21:30:07.455Z,14.15
2018-07-13T21:32:36.934Z,15.45
2018-07-13T21:35:08.040Z,15.55
2018-07-13T21:37:37.193Z,15.53
2018-07-13T21:40:06.226Z,15.50
2018-07-13T21:42:35.264Z,16.15
2018-07-13T21:45:04.677Z,15.43
2018-07-13T21:47:33.642Z,15.75
2018-07-13T21:50:02.781Z,14.68
2018-07-13T21:52:32.219Z,14.45
2018-07-13T21:55:01.413Z,14.40
2018-07-13T21:57:30.514Z,15.03
2018-07-13T21:59:59.669Z,15.83
2018-07-13T22:02:28.517Z,15.03
2018-07-13T22:04:57.538Z,15.53
2018-07-13T22:07:28.208Z,15.80
2018-07-13T22:09:57.314Z,15.83
2018-07-13T22:12:26.267Z,15.88
2018-07-13T22:14:55.949Z,16.00
2018-07-13T22:17:24.890Z,16.30
2018-07-13T22:19:53.997Z,15.85
2018-07-13T22:22:27.187Z,16.20
2018-07-13T22:24:56.204Z,15.63
2018-07-13T22:27:25.324Z,15.40
2018-07-13T22:29:54.345Z,16.23
2018-07-13T22:32:23.737Z,15.45
2018-07-13T22:34:52.831Z,15.90
2018-07-13T22:37:22.165Z,16.20
2018-07-13T22:39:52.072Z,15.70
2018-07-13T22:42:21.806Z,16.00
2018-07-13T22:44:51.426Z,16.23
2018-07-13T22:47:20.540Z,15.37
2018-07-13T22:49:49.481Z,16.53
2018-07-13T22:52:24.502Z,15.17
2018-07-13T22:54:53.484Z,16.13
2018-07-13T22:57:22.567Z,15.45
2018-07-13T22:59:52.420Z,16.23
2018-07-13T23:02:21.466Z,16.90
2018-07-13T23:04:50.460Z,16.65
2018-07-13T23:07:19.714Z,15.73
2018-07-13T23:09:48.573Z,15.27
2018-07-13T23:12:21.830Z,16.90
2018-07-13T23:14:50.839Z,16.67
2018-07-13T23:17:19.776Z,16.07
2018-07-13T23:19:48.884Z,16.20
2018-07-13T23:22:17.806Z,15.93
2018-07-13T23:24:46.952Z,15.78
2018-07-13T23:27:16.298Z,16.70
2018-07-13T23:29:46.359Z,15.67
2018-07-13T23:32:15.416Z,16.05
2018-07-13T23:34:44.846Z,14.93
2018-07-13T23:37:13.726Z,15.88
2018-07-13T23:39:42.772Z,15.70
2018-07-13T23:42:12.103Z,15.77
2018-07-13T23:44:41.264Z,15.93
2018-07-13T23:47:10.142Z,16.03
2018-07-13T23:49:39.634Z,16.75
2018-07-13T23:52:08.607Z,17.27
2018-07-13T23:54:37.571Z,16.63
2018-07-13T23:57:07.090Z,17.40
2018-07-13T23:59:36.092Z,17.10
